createdAt,value
2022-12-02T00:02:01.410Z,67.5
2022-12-02T00:04:08.386Z,78
2022-12-02T00:06:11.955Z,78.4
2022-12-02T00:08:15.758Z,59.1
2022-12-02T00:10:19.468Z,75.7
2022-12-02T00:12:23.335Z,71
2022-12-02T00:14:27.245Z,68.7
2022-12-02T00:16:31.153Z,72.3
2022-12-02T00:18:37.864Z,86.5
2022-12-02T00:20:41.658Z,65.6
2022-12-02T00:22:45.511Z,64.4
2022-12-02T00:24:49.620Z,65.4
2022-12-02T00:26:53.129Z,43.9
2022-12-02T00:28:56.980Z,33
2022-12-02T00:31:00.761Z,71
2022-12-02T00:33:07.520Z,65.6
2022-12-02T00:35:11.387Z,67.1
2022-12-02T00:37:15.272Z,51.1
2022-12-02T00:39:18.998Z,62.8
2022-12-02T00:41:22.740Z,57.8
2022-12-02T00:43:26.529Z,80.5
2022-12-02T00:45:30.468Z,56.1
2022-12-02T00:47:37.058Z,50.9
2022-12-02T00:49:40.819Z,70.7
2022-12-02T00:51:44.707Z,55.6
2022-12-02T00:52:47.969Z,47.2
2022-12-02T00:54:52.229Z,62.2
2022-12-02T00:56:55.701Z,60
2022-12-02T00:58:59.557Z,57.9
2022-12-02T01:01:06.229Z,69.2
2022-12-02T01:03:10.107Z,53.3
2022-12-02T01:05:13.856Z,71.2
2022-12-02T01:07:17.603Z,57.5
2022-12-02T01:09:21.348Z,69.3
2022-12-02T01:11:25.235Z,61.2
2022-12-02T01:13:29.099Z,65.7
2022-12-02T01:15:35.870Z,71.6
2022-12-02T01:17:39.724Z,55.3
2022-12-02T01:21:47.326Z,58.9
2022-12-02T01:23:51.086Z,57.6
2022-12-02T01:25:54.965Z,66.2
2022-12-02T01:27:58.787Z,67.2
2022-12-02T01:32:09.373Z,76.8
2022-12-02T01:34:13.217Z,77.4
2022-12-02T01:36:17.035Z,52.6
2022-12-02T01:38:20.875Z,62.4
2022-12-02T01:40:24.607Z,69.4
2022-12-02T01:42:28.476Z,71
2022-12-02T01:44:35.041Z,71.9
2022-12-02T01:46:38.883Z,84.8
2022-12-02T01:48:42.645Z,62.8
2022-12-02T01:51:00.608Z,95.2
2022-12-02T01:55:08.256Z,60.9
2022-12-02T01:57:14.923Z,66.4
2022-12-02T01:59:18.758Z,60.7
2022-12-02T02:01:22.699Z,58.7
2022-12-02T02:05:30.209Z,52.7
2022-12-02T02:07:34.085Z,58.6
2022-12-02T02:09:37.919Z,50.7
2022-12-02T02:13:48.524Z,65.5
2022-12-02T02:18:00.647Z,49.8
2022-12-02T02:20:00.224Z,58.5
2022-12-02T02:22:03.966Z,55.5
2022-12-02T02:24:07.722Z,54.6
2022-12-02T02:28:18.121Z,52.3
2022-12-02T02:30:21.849Z,75.5
2022-12-02T02:42:47.372Z,47.8
2022-12-02T02:44:51.281Z,55
2022-12-02T02:47:58.199Z,58.4
2022-12-02T02:50:01.967Z,38.7
2022-12-02T02:52:05.719Z,57.1
2022-12-02T02:54:12.462Z,54.7
2022-12-02T02:56:16.264Z,57.3
2022-12-02T02:58:19.902Z,52.2
2022-12-02T03:00:23.652Z,43.9
2022-12-02T03:02:27.456Z,70.3
2022-12-02T03:04:31.126Z,59.2
2022-12-02T03:06:34.850Z,61
2022-12-02T03:08:41.503Z,53.6
2022-12-02T03:10:45.273Z,55.3
2022-12-02T03:12:49.109Z,43.9
2022-12-02T03:14:53.203Z,53.3
2022-12-02T03:19:00.652Z,48.1
2022-12-02T03:25:14.962Z,47.6
2022-12-02T03:27:18.820Z,42.8
2022-12-02T03:29:22.655Z,37.9
2022-12-02T03:31:26.493Z,67.7
2022-12-02T03:33:30.256Z,41.4
2022-12-02T03:35:34.133Z,40.5
2022-12-02T03:37:40.887Z,51
2022-12-02T03:39:44.706Z,36
2022-12-02T03:41:48.550Z,37.7
2022-12-02T03:42:51.927Z,40.9
2022-12-02T03:44:55.663Z,58
2022-12-02T03:46:59.403Z,41
2022-12-02T03:49:03.258Z,41.3
2022-12-02T03:51:09.992Z,48.4
2022-12-02T03:53:13.843Z,41.1
2022-12-02T03:55:17.560Z,36.1
2022-12-02T03:57:21.410Z,43
2022-12-02T03:59:25.144Z,29.3
2022-12-02T04:01:29.025Z,41.7
2022-12-02T04:07:44.739Z,51
2022-12-02T04:09:48.500Z,64.2
2022-12-02T04:11:52.306Z,45
2022-12-02T04:13:56.127Z,35
2022-12-02T04:16:00.053Z,31.3
2022-12-02T04:18:03.694Z,46.7
2022-12-02T04:20:10.423Z,42.2
2022-12-02T04:22:14.147Z,45.6
2022-12-02T04:24:18.002Z,36.2
2022-12-02T04:26:21.718Z,52.1
2022-12-02T04:28:25.548Z,60.2
2022-12-02T04:30:29.392Z,38.3
2022-12-02T04:32:33.104Z,46.5
2022-12-02T04:34:39.838Z,44.8
2022-12-02T04:36:43.562Z,42.7
2022-12-02T04:38:47.277Z,56.5
2022-12-02T04:41:54.484Z,40.7
2022-12-02T04:52:16.434Z,41.7
2022-12-02T04:54:20.221Z,31.9
2022-12-02T04:56:24.081Z,41.6
2022-12-02T05:08:49.816Z,45.3
2022-12-02T05:10:53.619Z,61.9
2022-12-02T05:12:57.366Z,40.4
2022-12-02T05:17:07.946Z,42.2
2022-12-02T05:19:11.746Z,35.7
2022-12-02T05:21:15.481Z,35.2
2022-12-02T05:23:19.290Z,44.3
2022-12-02T05:25:23.095Z,37.1
2022-12-02T05:27:29.795Z,64.4
2022-12-02T05:29:30.752Z,45.3
2022-12-02T05:31:37.630Z,39.3
2022-12-02T05:33:41.340Z,54.2
2022-12-02T05:35:45.154Z,40.2
2022-12-02T05:38:14.789Z,38.7
2022-12-02T05:40:18.628Z,40.5
2022-12-02T05:42:22.451Z,49.7
2022-12-02T05:44:29.626Z,43.7
2022-12-02T05:46:33.053Z,32
2022-12-02T05:48:36.725Z,32.2
2022-12-02T05:50:40.538Z,40
2022-12-02T05:52:44.359Z,38.4
2022-12-02T05:54:48.509Z,31.4
2022-12-02T05:56:51.983Z,30.7
2022-12-02T05:58:58.731Z,42.6
2022-12-02T06:01:02.567Z,46.8
2022-12-02T06:03:06.481Z,37
2022-12-02T06:05:10.173Z,35.5
2022-12-02T06:07:13.986Z,43.9
2022-12-02T06:09:17.777Z,35.5
2022-12-02T06:13:28.407Z,39.1
2022-12-02T06:15:32.006Z,48.9
2022-12-02T06:17:35.689Z,31.2
2022-12-02T06:19:39.404Z,30.2
2022-12-02T06:21:43.207Z,32.3
2022-12-02T06:30:01.359Z,34.9
2022-12-02T06:33:08.392Z,36.9
2022-12-02T06:35:12.202Z,25
2022-12-02T06:37:16.015Z,36.7
2022-12-02T06:39:19.717Z,31.8
2022-12-02T06:41:26.467Z,46.2
2022-12-02T06:45:34.117Z,40.8
2022-12-02T06:47:37.845Z,33.3
2022-12-02T06:49:41.669Z,42.9
2022-12-02T06:51:45.463Z,28.6
2022-12-02T06:53:49.270Z,26.1
2022-12-02T06:55:56.026Z,37.8
2022-12-02T06:57:59.829Z,41.8
2022-12-02T07:00:03.661Z,26.5
2022-12-02T07:02:08.576Z,24
2022-12-02T07:04:11.168Z,47.2
2022-12-02T07:06:15.008Z,51.7
2022-12-02T07:08:18.858Z,50.5
2022-12-02T07:10:25.591Z,41.4
2022-12-02T07:12:29.386Z,32.8
2022-12-02T07:14:33.204Z,27.8
2022-12-02T07:16:36.993Z,52.4
2022-12-02T07:18:40.783Z,26
2022-12-02T07:20:44.595Z,23.5
2022-12-02T07:22:48.391Z,59.7
2022-12-02T07:24:54.887Z,36.2
2022-12-02T07:27:03.981Z,33.5
2022-12-02T07:30:05.763Z,47.1
2022-12-02T07:34:13.266Z,54.4
2022-12-02T07:38:42.776Z,34.9
2022-12-02T07:40:27.699Z,57.7
2022-12-02T07:42:31.369Z,42.3
2022-12-02T07:44:35.133Z,42.4
2022-12-02T07:46:39.073Z,49.8
2022-12-02T07:48:42.773Z,69.9
2022-12-02T07:50:46.586Z,43.8
2022-12-02T07:52:53.311Z,60.1
2022-12-02T07:54:57.093Z,52.1
2022-12-02T07:57:00.937Z,52.4
2022-12-02T07:59:13.343Z,20.4
2022-12-02T08:01:08.593Z,50.7
2022-12-02T08:03:12.361Z,49.5
2022-12-02T08:05:16.277Z,47.7
2022-12-02T08:07:22.938Z,31.5
2022-12-02T08:09:26.666Z,48.2
2022-12-02T08:11:30.496Z,45.1
2022-12-02T08:13:34.314Z,54.6
2022-12-02T08:15:38.115Z,22.7
2022-12-02T08:17:41.829Z,57.6
2022-12-02T08:19:45.644Z,38.1
2022-12-02T08:21:52.380Z,44.5
2022-12-02T08:23:56.155Z,54
2022-12-02T08:27:03.340Z,38.6
2022-12-02T08:29:07.114Z,33.7
2022-12-02T08:33:14.763Z,34.9
2022-12-02T08:37:25.262Z,32.2
2022-12-02T08:39:28.963Z,30.7
2022-12-02T08:43:36.388Z,34.8
2022-12-02T08:47:43.908Z,41.5
2022-12-02T08:51:54.250Z,52
2022-12-02T09:02:13.142Z,29.9
2022-12-02T09:06:23.669Z,34.6
2022-12-02T09:08:27.583Z,41.8
2022-12-02T09:10:31.272Z,49.3
2022-12-02T09:12:35.126Z,46.8
2022-12-02T09:18:49.249Z,49
2022-12-02T09:22:56.703Z,44.4
2022-12-02T09:25:26.379Z,60.9
2022-12-02T09:31:40.475Z,51.5
2022-12-02T09:33:44.270Z,49.6
2022-12-02T09:35:48.026Z,45.3
2022-12-02T09:37:51.722Z,32.4
2022-12-02T09:39:55.395Z,47.4
2022-12-02T09:41:59.112Z,42.6
2022-12-02T09:44:02.859Z,39
2022-12-02T09:46:09.668Z,54.9
2022-12-02T09:50:17.043Z,57.5
2022-12-02T09:52:25.513Z,43.1
2022-12-02T09:54:24.671Z,43.6
2022-12-02T09:56:28.485Z,38.5
2022-12-02T09:58:32.307Z,56.9
2022-12-02T10:00:39.013Z,64.9
2022-12-02T10:02:42.764Z,43.9
2022-12-02T10:04:48.104Z,54.2
2022-12-02T10:13:07.847Z,64.8
2022-12-02T10:15:09.930Z,72.4
2022-12-02T10:19:17.476Z,34.7
2022-12-02T10:20:20.847Z,62.9
2022-12-02T10:22:24.633Z,53.4
2022-12-02T10:24:28.453Z,45.8
2022-12-02T10:26:32.308Z,69.8
2022-12-02T10:28:39.023Z,46.9
2022-12-02T10:32:46.637Z,58.6
2022-12-02T10:34:50.691Z,71.4
2022-12-02T10:36:54.283Z,52.6
2022-12-02T10:38:58.002Z,63.9
2022-12-02T10:41:01.710Z,65.6
2022-12-02T10:43:08.315Z,75.4
2022-12-02T10:45:12.051Z,41.7
2022-12-02T10:47:15.867Z,49.8
2022-12-02T10:49:19.555Z,55
2022-12-02T10:51:23.271Z,55.8
2022-12-02T10:53:27.014Z,23.3
2022-12-02T10:55:30.840Z,55.9
2022-12-02T10:57:37.480Z,45.9
2022-12-02T10:59:41.277Z,39.6
2022-12-02T11:01:45.145Z,41.4
2022-12-02T11:03:48.911Z,48.9
2022-12-02T11:07:56.606Z,33.9
2022-12-02T11:12:07.069Z,53.8
2022-12-02T11:14:10.906Z,67.6
2022-12-02T11:17:18.799Z,40.8
2022-12-02T11:19:22.618Z,31.8
2022-12-02T11:21:26.307Z,44.8
2022-12-02T11:23:30.038Z,33.9
2022-12-02T11:25:36.787Z,43.6
2022-12-02T11:27:40.577Z,51.5
2022-12-02T11:29:44.260Z,35.3
2022-12-02T11:31:48.160Z,50.7
2022-12-02T11:40:06.156Z,31.5
2022-12-02T11:42:10.000Z,51
2022-12-02T11:44:13.834Z,35.3
2022-12-02T11:46:17.721Z,27.7
2022-12-02T11:48:21.467Z,30
2022-12-02T11:50:25.313Z,20.3
2022-12-02T11:52:29.162Z,24.9
2022-12-02T11:56:39.613Z,41.3
2022-12-02T12:00:47.241Z,35.2
2022-12-02T12:02:51.093Z,33.3
2022-12-02T12:06:58.710Z,32.2
2022-12-02T12:11:09.227Z,27.3
2022-12-02T12:14:16.433Z,27
2022-12-02T12:16:20.273Z,18.3
2022-12-02T12:20:27.874Z,42.8
2022-12-02T12:22:34.597Z,29.2
2022-12-02T12:24:38.407Z,40.1
2022-12-02T12:26:42.261Z,29.2
2022-12-02T12:28:46.060Z,33.5
2022-12-02T12:30:49.921Z,26.8
2022-12-02T12:32:53.709Z,17.9
2022-12-02T12:34:57.524Z,15.4
2022-12-02T12:37:04.185Z,32.1
2022-12-02T12:39:08.756Z,23.6
2022-12-02T12:41:12.416Z,22.2
2022-12-02T12:43:16.271Z,17.7
2022-12-02T12:45:20.061Z,20.8
2022-12-02T12:47:23.870Z,30.9
2022-12-02T12:49:27.771Z,19.6
2022-12-02T12:53:38.149Z,12.2
2022-12-02T12:57:45.787Z,18.5
2022-12-02T12:59:50.033Z,13.1
2022-12-02T13:03:57.131Z,17.1
2022-12-02T13:06:03.777Z,21.7
2022-12-02T13:08:09.566Z,13.4
2022-12-02T13:10:11.422Z,32.6
2022-12-02T13:12:41.127Z,26.2
2022-12-02T13:14:44.933Z,21.8
2022-12-02T13:16:48.833Z,16.8
2022-12-02T13:20:59.201Z,12.7
2022-12-02T13:23:03.029Z,16.9
2022-12-02T13:25:06.849Z,25.1
2022-12-02T13:27:10.665Z,14
2022-12-02T13:29:14.498Z,21.8
2022-12-02T13:31:18.353Z,29.4
2022-12-02T13:33:25.045Z,23.8
2022-12-02T13:35:28.829Z,15.6
2022-12-02T13:37:32.649Z,24.8
2022-12-02T13:39:36.439Z,19.2
2022-12-02T13:41:40.269Z,24.6
2022-12-02T13:43:44.068Z,26.1
2022-12-02T13:45:47.918Z,22.2
2022-12-02T13:47:54.617Z,31.2
2022-12-02T13:49:58.421Z,23.9
2022-12-02T13:52:02.256Z,39.9
2022-12-02T13:54:06.043Z,16.5
2022-12-02T13:56:09.843Z,15.7
2022-12-02T13:58:13.627Z,25.9
2022-12-02T14:00:17.480Z,18.5
2022-12-02T14:02:24.190Z,30.7
2022-12-02T14:04:27.997Z,20.2
2022-12-02T14:06:31.685Z,5
2022-12-02T14:07:35.104Z,45.6
2022-12-02T14:09:38.875Z,31.5
2022-12-02T14:11:42.650Z,21.5
2022-12-02T14:13:46.468Z,36.3
2022-12-02T14:15:53.266Z,41.6
2022-12-02T14:17:56.994Z,47.3
2022-12-02T14:20:00.798Z,47.4
2022-12-02T14:22:04.601Z,49.9
2022-12-02T14:24:08.421Z,35.9
2022-12-02T14:26:12.214Z,72.7
2022-12-02T14:32:26.551Z,54.1
2022-12-02T14:34:30.358Z,63.1
2022-12-02T14:40:41.723Z,40.2
2022-12-02T14:42:45.502Z,70.4
2022-12-02T14:44:52.314Z,46
2022-12-02T14:46:55.785Z,58.2
2022-12-02T14:49:30.681Z,34.4
2022-12-02T14:51:03.343Z,49.9
2022-12-02T14:53:07.133Z,46.6
2022-12-02T14:55:10.920Z,45.1
2022-12-02T14:57:14.701Z,75.4
2022-12-02T14:59:21.423Z,73.7
2022-12-02T15:01:25.289Z,74.8
2022-12-02T15:04:32.384Z,69.3
2022-12-02T15:06:36.172Z,58.6
2022-12-02T15:08:39.976Z,56.8
2022-12-02T15:10:43.775Z,82.7
2022-12-02T15:12:50.504Z,42.7
2022-12-02T15:14:59.288Z,59.1
2022-12-02T15:16:58.125Z,58.1
2022-12-02T15:19:01.872Z,69
2022-12-02T15:21:10.567Z,51.4
2022-12-02T15:23:09.467Z,77.8
2022-12-02T15:25:13.244Z,69.5
2022-12-02T15:27:19.956Z,42.6
2022-12-02T15:29:23.963Z,61.9
2022-12-02T15:31:27.540Z,63.5
2022-12-02T15:33:31.270Z,63.7
2022-12-02T15:35:35.086Z,46.9
2022-12-02T15:37:38.863Z,68.2
2022-12-02T15:39:42.662Z,57.7
2022-12-02T15:41:49.382Z,46.7
2022-12-02T15:43:53.991Z,29.4
2022-12-02T15:45:56.955Z,50.9
2022-12-02T15:48:00.668Z,47.3
2022-12-02T15:54:11.911Z,58.8
2022-12-02T15:58:22.330Z,57
2022-12-02T16:01:31.172Z,32
2022-12-02T16:03:34.785Z,49.8
2022-12-02T16:07:42.400Z,50.9
2022-12-02T16:09:49.134Z,48.8
2022-12-02T16:16:00.467Z,63
2022-12-02T16:18:04.207Z,55.5
2022-12-02T16:20:08.045Z,51.8
2022-12-02T16:22:11.777Z,58.6
2022-12-02T16:26:22.285Z,63.9
2022-12-02T16:30:29.918Z,36.5
2022-12-02T16:32:33.705Z,49.1
2022-12-02T16:36:41.347Z,57.2
2022-12-02T16:38:47.981Z,73.6
2022-12-02T16:40:51.694Z,73.2
2022-12-02T16:42:55.474Z,52.7
2022-12-02T16:44:59.627Z,65.6
2022-12-02T16:47:03.142Z,45.7
2022-12-02T16:49:06.957Z,53.4
2022-12-02T16:51:10.798Z,48.5
2022-12-02T16:53:17.424Z,52.4
2022-12-02T16:55:21.244Z,52.3
2022-12-02T16:57:25.051Z,32.1
2022-12-02T16:59:54.813Z,46.2
2022-12-02T17:01:58.743Z,55.5
2022-12-02T17:04:02.491Z,47.8
2022-12-02T17:06:09.120Z,59.5
2022-12-02T17:08:12.982Z,56.4
2022-12-02T17:10:16.771Z,41.8
2022-12-02T17:12:20.493Z,41.3
2022-12-02T17:14:24.294Z,45.9
2022-12-02T17:16:28.200Z,53.7
2022-12-02T17:18:31.908Z,54.6
2022-12-02T17:20:38.561Z,37.2
2022-12-02T17:22:42.371Z,55.3
2022-12-02T17:24:46.096Z,46.3
2022-12-02T17:26:55.499Z,60
2022-12-02T17:28:53.655Z,57.7
2022-12-02T17:30:57.481Z,57.2
2022-12-02T17:33:01.284Z,55
2022-12-02T17:35:08.022Z,42.4
2022-12-02T17:37:11.856Z,26.2
2022-12-02T17:39:15.649Z,43.4
2022-12-02T17:41:19.457Z,37.3
2022-12-02T17:43:23.171Z,52.5
2022-12-02T17:45:26.958Z,41.3
2022-12-02T17:47:30.607Z,43.7
2022-12-02T17:49:37.159Z,48
2022-12-02T17:51:40.987Z,30.1
2022-12-02T17:53:44.779Z,47.4
2022-12-02T17:54:48.047Z,50.7
2022-12-02T17:56:51.854Z,42.5
2022-12-02T17:58:55.690Z,47.3
2022-12-02T18:00:59.463Z,45.8
2022-12-02T18:05:09.886Z,51.7
2022-12-02T18:07:13.679Z,55.9
2022-12-02T18:09:17.421Z,37.1
2022-12-02T18:11:21.236Z,38.5
2022-12-02T18:13:25.045Z,40.8
2022-12-02T18:15:28.834Z,31.5
2022-12-02T18:17:35.559Z,61.5
2022-12-02T18:19:39.271Z,42.1
2022-12-02T18:21:42.996Z,43
2022-12-02T18:23:46.725Z,29.5
2022-12-02T18:25:50.512Z,34.3
2022-12-02T18:27:54.305Z,33.9
2022-12-02T18:29:58.018Z,46.4
2022-12-02T18:32:04.706Z,33.1
2022-12-02T18:34:08.475Z,52.1
2022-12-02T18:36:12.289Z,44.9
2022-12-02T18:40:19.881Z,60.8
2022-12-02T18:42:23.713Z,37.2
2022-12-02T18:44:27.425Z,53.9
2022-12-02T18:46:35.129Z,41
2022-12-02T18:48:38.853Z,50.8
2022-12-02T18:50:42.585Z,40.8
2022-12-02T18:51:45.945Z,47.5
2022-12-02T18:53:49.751Z,56.9
2022-12-02T18:55:53.574Z,40.2
2022-12-02T18:57:57.377Z,27.1
2022-12-02T19:00:04.028Z,37.8
2022-12-02T19:02:07.911Z,26.7
2022-12-02T19:04:11.613Z,26.3
2022-12-02T19:06:15.394Z,20.6
2022-12-02T19:08:19.229Z,18.5
2022-12-02T19:10:22.955Z,28.7
2022-12-02T19:12:26.762Z,26.7
2022-12-02T19:14:33.486Z,34.4
2022-12-02T19:16:37.316Z,31.4
2022-12-02T19:20:44.900Z,22.4
2022-12-02T19:22:48.684Z,25.1
2022-12-02T19:24:52.845Z,22.5
2022-12-02T19:26:56.276Z,26.7
2022-12-02T19:29:03.151Z,23.1
2022-12-02T19:31:06.860Z,29.4
2022-12-02T19:33:10.484Z,30
2022-12-02T19:35:14.184Z,21.4
2022-12-02T19:37:17.970Z,19.9
2022-12-02T19:39:21.833Z,21.2
2022-12-02T19:41:25.623Z,24.9
2022-12-02T19:43:35.560Z,33.6
2022-12-02T19:45:36.032Z,17.7
2022-12-02T19:48:43.200Z,53.4
2022-12-02T19:52:50.844Z,25
2022-12-02T19:54:54.886Z,32
2022-12-02T19:57:01.338Z,21.1
2022-12-02T19:59:05.171Z,28.1
2022-12-02T20:01:08.957Z,14
2022-12-02T20:03:12.892Z,25
2022-12-02T20:05:16.580Z,19
2022-12-02T20:07:20.357Z,8.5
2022-12-02T20:09:24.084Z,13.7
2022-12-02T20:11:30.816Z,19.7
2022-12-02T20:13:34.500Z,27.9
2022-12-02T20:15:38.340Z,20.8
2022-12-02T20:17:42.101Z,21.9
2022-12-02T20:19:45.927Z,20.4
2022-12-02T20:21:49.753Z,15
2022-12-02T20:23:53.504Z,29.1
2022-12-02T20:26:00.229Z,32.1
2022-12-02T20:28:03.972Z,28.6
2022-12-02T20:30:07.746Z,28.9
2022-12-02T20:32:11.539Z,31.1
2022-12-02T20:34:15.222Z,30.7
2022-12-02T20:38:22.609Z,21.4
2022-12-02T20:42:32.913Z,29.5
2022-12-02T20:44:36.721Z,24.9
2022-12-02T20:47:00.815Z,33.1
2022-12-02T20:49:04.556Z,24.2
2022-12-02T20:51:08.239Z,18.9
2022-12-02T20:53:14.963Z,28
2022-12-02T20:55:18.757Z,39.5
2022-12-02T20:57:22.465Z,34.5
2022-12-02T20:59:26.259Z,28.9
2022-12-02T21:01:30.119Z,25.6
2022-12-02T21:03:33.823Z,25.9
2022-12-02T21:05:37.635Z,31.1
2022-12-02T21:07:44.354Z,21.5
2022-12-02T21:09:47.933Z,28.2
2022-12-02T21:11:51.716Z,22
2022-12-02T21:13:55.421Z,31
2022-12-02T21:15:59.116Z,22.5
2022-12-02T21:18:02.794Z,20.3
2022-12-02T21:20:06.571Z,16.4
2022-12-02T21:22:13.206Z,18.5
2022-12-02T21:24:17.027Z,28.3
2022-12-02T21:26:20.816Z,35.7
2022-12-02T21:28:24.587Z,30.4
2022-12-02T21:30:28.425Z,23.7
2022-12-02T21:32:32.164Z,19.8
2022-12-02T21:34:35.890Z,21.3
2022-12-02T21:36:42.624Z,35.5
2022-12-02T21:38:46.379Z,17.6
2022-12-02T21:40:50.108Z,21.7
2022-12-02T21:43:57.263Z,34.7
2022-12-02T21:48:04.863Z,29.9
2022-12-02T21:50:11.483Z,20.9
2022-12-02T21:52:15.245Z,24.8
2022-12-02T21:54:19.044Z,31.3
2022-12-02T21:56:22.828Z,30.4
2022-12-02T21:58:28.122Z,24.3
2022-12-02T22:00:31.969Z,30.4
2022-12-02T22:02:35.733Z,29
2022-12-02T22:04:42.351Z,42
2022-12-02T22:06:46.206Z,28.2
2022-12-02T22:08:49.974Z,31.5
2022-12-02T22:10:53.756Z,31.6
2022-12-02T22:12:57.478Z,20.6
2022-12-02T22:15:01.299Z,29.7
2022-12-02T22:17:05.098Z,30.4
2022-12-02T22:21:15.454Z,32.8
2022-12-02T22:25:22.971Z,12.2
2022-12-02T22:35:44.892Z,26.9
2022-12-02T22:37:48.652Z,19.5
2022-12-02T22:38:51.923Z,37.4
2022-12-02T22:40:55.720Z,36.4
2022-12-02T22:42:59.477Z,30.4
2022-12-02T22:45:03.295Z,26.1
2022-12-02T22:47:09.898Z,26.7
2022-12-02T22:49:13.716Z,42.5
2022-12-02T22:51:17.480Z,35.7
2022-12-02T22:53:21.429Z,30.3
2022-12-02T22:55:25.075Z,31.2
2022-12-02T22:57:28.910Z,35.1
2022-12-02T22:59:32.676Z,28.5
2022-12-02T23:01:39.480Z,36.5
2022-12-02T23:03:43.367Z,33.8
2022-12-02T23:05:47.001Z,49
2022-12-02T23:07:50.840Z,50.5
2022-12-02T23:09:54.534Z,18
2022-12-02T23:11:58.351Z,52.7
2022-12-02T23:14:02.073Z,25.6
2022-12-02T23:16:08.833Z,43.4
2022-12-02T23:18:12.552Z,34.4
2022-12-02T23:20:16.333Z,35.3
2022-12-02T23:22:20.116Z,28.4
2022-12-02T23:24:23.953Z,39.5
2022-12-02T23:26:27.592Z,44
2022-12-02T23:28:31.385Z,32
2022-12-02T23:30:38.184Z,41.7
2022-12-02T23:32:41.921Z,39.6
2022-12-02T23:34:45.654Z,44.9
2022-12-02T23:37:52.764Z,51
2022-12-02T23:44:07.069Z,52.7
2022-12-02T23:46:10.867Z,65.3
2022-12-02T23:48:14.467Z,35.5
2022-12-02T23:50:18.167Z,40.7
2022-12-02T23:52:21.977Z,56.5
2022-12-02T23:54:25.770Z,55.6
2022-12-02T23:56:29.552Z,57.4
2022-12-02T23:58:36.261Z,46.5
